createdAt,value
2019-03-09T00:02:26.682Z,51.88
2019-03-09T00:04:56.122Z,52.26
2019-03-09T00:07:25.770Z,52.46
2019-03-09T00:09:55.141Z,52.20
2019-03-09T00:12:24.482Z,52.35
2019-03-09T00:14:53.919Z,52.71
2019-03-09T00:17:23.351Z,52.81
2019-03-09T00:19:52.764Z,52.75
2019-03-09T00:22:23.493Z,53.20
2019-03-09T00:25:04.386Z,54.03
2019-03-09T00:27:55.986Z,53.79
2019-03-09T00:30:49.260Z,53.91
2019-03-09T00:33:18.828Z,53.86
2019-03-09T00:35:48.345Z,55.17
2019-03-09T00:38:17.683Z,54.74
2019-03-09T00:40:47.017Z,54.97
2019-03-09T00:43:16.391Z,55.39
2019-03-09T00:45:45.759Z,54.45
2019-03-09T00:48:15.311Z,54.79
2019-03-09T00:50:44.723Z,54.92
2019-03-09T00:53:14.054Z,54.49
2019-03-09T00:55:43.426Z,54.08
2019-03-09T00:58:12.760Z,54.88
2019-03-09T01:00:42.274Z,53.42
2019-03-09T01:03:11.608Z,53.53
2019-03-09T01:05:40.937Z,53.29
2019-03-09T01:08:10.356Z,52.91
2019-03-09T01:10:39.722Z,53.00
2019-03-09T01:13:09.050Z,53.35
2019-03-09T01:15:38.426Z,53.22
2019-03-09T01:18:07.802Z,52.72
2019-03-09T01:20:37.171Z,53.22
2019-03-09T01:23:06.588Z,53.55
2019-03-09T01:25:35.941Z,53.82
2019-03-09T01:28:05.330Z,54.16
2019-03-09T01:30:34.702Z,54.70
2019-03-09T01:33:04.057Z,55.43
2019-03-09T01:35:34.298Z,55.44
2019-03-09T01:38:03.683Z,55.46
2019-03-09T01:40:33.059Z,56.14
2019-03-09T01:43:02.447Z,56.40
2019-03-09T01:45:31.787Z,56.71
2019-03-09T01:48:01.141Z,56.84
2019-03-09T01:50:30.502Z,56.61
2019-03-09T01:52:59.869Z,56.64
2019-03-09T01:55:29.262Z,56.82
2019-03-09T01:57:58.664Z,56.74
2019-03-09T02:00:28.168Z,57.67
2019-03-09T02:02:57.484Z,57.58
2019-03-09T02:05:26.927Z,57.40
2019-03-09T02:07:56.353Z,57.63
2019-03-09T02:10:25.695Z,57.98
2019-03-09T02:12:55.012Z,58.59
2019-03-09T02:15:24.347Z,58.44
2019-03-09T02:17:53.688Z,58.34
2019-03-09T02:20:23.300Z,58.10
2019-03-09T02:22:52.673Z,57.96
2019-03-09T02:25:22.135Z,57.56
2019-03-09T02:27:51.504Z,57.21
2019-03-09T02:30:20.998Z,57.57
2019-03-09T02:32:50.545Z,57.53
2019-03-09T02:35:19.895Z,57.19
2019-03-09T02:37:49.214Z,57.32
2019-03-09T02:40:23.704Z,57.13
2019-03-09T02:42:53.073Z,56.76
2019-03-09T02:45:23.100Z,56.35
2019-03-09T02:47:52.390Z,56.82
2019-03-09T02:50:21.864Z,56.24
2019-03-09T02:52:51.231Z,56.50
2019-03-09T02:55:20.612Z,56.63
2019-03-09T02:57:50.106Z,56.32
2019-03-09T03:00:19.605Z,55.67
2019-03-09T03:03:01.367Z,55.25
2019-03-09T03:05:30.752Z,55.11
2019-03-09T03:08:00.060Z,56.16
2019-03-09T03:10:29.417Z,55.87
2019-03-09T03:12:58.832Z,56.04
2019-03-09T03:15:33.300Z,55.41
2019-03-09T03:18:02.766Z,55.59
2019-03-09T03:20:32.322Z,55.47
2019-03-09T03:23:01.708Z,55.35
2019-03-09T03:25:31.057Z,55.64
2019-03-09T03:28:00.453Z,55.96
2019-03-09T03:30:29.803Z,55.86
2019-03-09T03:32:59.521Z,55.20
2019-03-09T03:35:28.889Z,55.92
2019-03-09T03:37:58.300Z,56.61
2019-03-09T03:40:27.670Z,56.99
2019-03-09T03:42:57.070Z,57.57
2019-03-09T03:45:26.441Z,56.88
2019-03-09T03:47:55.752Z,57.10
2019-03-09T03:50:25.130Z,58.04
2019-03-09T03:52:54.454Z,58.20
2019-03-09T03:55:23.855Z,58.71
2019-03-09T03:57:53.223Z,58.77
2019-03-09T04:00:22.587Z,58.78
2019-03-09T04:02:51.960Z,58.27
2019-03-09T04:05:21.322Z,58.37
2019-03-09T04:07:50.771Z,58.31
2019-03-09T04:10:20.562Z,58.06
2019-03-09T04:12:50.189Z,57.57
2019-03-09T04:15:19.524Z,58.30
2019-03-09T04:17:48.914Z,58.39
2019-03-09T04:20:18.280Z,57.87
2019-03-09T04:22:47.623Z,58.33
2019-03-09T04:25:16.994Z,58.47
2019-03-09T04:27:46.452Z,58.49
2019-03-09T04:30:16.063Z,59.15
2019-03-09T04:32:45.432Z,59.35
2019-03-09T04:35:14.917Z,59.45
2019-03-09T04:37:44.268Z,59.15
2019-03-09T04:40:13.902Z,58.61
2019-03-09T04:42:43.256Z,58.55
2019-03-09T04:45:12.633Z,58.80
2019-03-09T04:47:42.013Z,58.96
2019-03-09T04:50:11.446Z,59.70
2019-03-09T04:52:40.899Z,59.40
2019-03-09T04:55:10.442Z,59.06
2019-03-09T04:57:39.797Z,58.82
2019-03-09T05:00:09.498Z,58.54
2019-03-09T05:02:38.844Z,58.84
2019-03-09T05:05:09.223Z,58.04
2019-03-09T05:07:41.448Z,57.91
2019-03-09T05:10:43.625Z,58.51
2019-03-09T05:13:19.337Z,57.92
2019-03-09T05:15:48.733Z,56.97
2019-03-09T05:18:18.225Z,57.23
2019-03-09T05:20:47.615Z,57.84
2019-03-09T05:23:17.037Z,59.51
2019-03-09T05:25:46.435Z,60.07
2019-03-09T05:28:16.549Z,60.44
2019-03-09T05:30:55.851Z,60.62
2019-03-09T05:33:27.376Z,60.12
2019-03-09T05:35:58.228Z,58.98
2019-03-09T05:38:27.684Z,58.09
2019-03-09T05:40:57.099Z,58.52
2019-03-09T05:43:26.482Z,58.29
2019-03-09T05:45:55.864Z,58.05
2019-03-09T05:48:25.200Z,57.91
2019-03-09T05:50:54.555Z,57.00
2019-03-09T05:53:24.217Z,56.21
2019-03-09T05:55:53.891Z,56.26
2019-03-09T05:58:23.239Z,55.84
2019-03-09T06:00:53.586Z,56.13
2019-03-09T06:03:23.148Z,56.24
2019-03-09T06:06:01.613Z,55.50
2019-03-09T06:08:30.969Z,55.42
2019-03-09T06:11:02.404Z,55.23
2019-03-09T06:13:31.777Z,55.29
2019-03-09T06:16:01.231Z,55.14
2019-03-09T06:18:30.734Z,55.39
2019-03-09T06:21:00.302Z,55.66
2019-03-09T06:23:29.837Z,55.53
2019-03-09T06:25:59.176Z,55.50
2019-03-09T06:28:28.506Z,55.11
2019-03-09T06:30:57.893Z,54.84
2019-03-09T06:33:35.797Z,54.79
2019-03-09T06:36:11.896Z,55.00
2019-03-09T06:38:53.430Z,54.83
2019-03-09T06:41:26.836Z,54.46
2019-03-09T06:43:56.504Z,53.30
2019-03-09T06:46:25.850Z,52.03
2019-03-09T06:48:55.441Z,51.44
2019-03-09T06:51:24.957Z,51.00
2019-03-09T06:53:54.348Z,51.00
2019-03-09T06:56:23.757Z,51.31
2019-03-09T06:58:53.099Z,51.00
2019-03-09T07:01:23.164Z,50.55
2019-03-09T07:03:52.510Z,50.39
2019-03-09T07:06:22.114Z,49.73
2019-03-09T07:08:51.477Z,49.17
2019-03-09T07:11:20.957Z,49.23
2019-03-09T07:13:53.080Z,47.64
2019-03-09T07:16:21.548Z,46.90
2019-03-09T07:18:51.016Z,46.06
2019-03-09T07:21:20.400Z,45.42
2019-03-09T07:23:49.809Z,44.80
2019-03-09T07:26:19.189Z,42.86
2019-03-09T07:28:48.571Z,41.78
2019-03-09T07:31:18.100Z,40.70
2019-03-09T07:33:47.491Z,39.72
2019-03-09T07:36:16.845Z,38.89
2019-03-09T07:38:46.307Z,37.93
2019-03-09T07:41:15.702Z,37.18
2019-03-09T07:43:45.083Z,37.35
2019-03-09T07:46:14.922Z,36.33
2019-03-09T07:48:44.341Z,35.91
2019-03-09T07:51:13.865Z,35.11
2019-03-09T07:53:43.305Z,34.92
2019-03-09T07:56:12.691Z,35.14
2019-03-09T07:58:42.081Z,35.24
2019-03-09T08:01:11.494Z,33.26
2019-03-09T08:03:40.939Z,32.83
2019-03-09T08:06:10.355Z,32.99
2019-03-09T08:08:39.726Z,32.28
2019-03-09T08:11:09.112Z,31.19
2019-03-09T08:13:38.453Z,30.65
2019-03-09T08:16:07.884Z,30.66
2019-03-09T08:18:37.329Z,30.24
2019-03-09T08:21:06.738Z,30.14
2019-03-09T08:23:36.110Z,30.09
2019-03-09T08:26:05.551Z,30.08
2019-03-09T08:28:34.905Z,29.99
2019-03-09T08:31:05.119Z,29.37
2019-03-09T08:33:34.556Z,28.91
2019-03-09T08:36:04.006Z,28.47
2019-03-09T08:38:34.278Z,28.33
2019-03-09T08:41:03.989Z,28.04
2019-03-09T08:43:36.031Z,28.59
2019-03-09T08:46:06.476Z,29.47
2019-03-09T08:48:36.814Z,28.89
2019-03-09T08:51:08.201Z,29.08
2019-03-09T08:53:37.675Z,29.04
2019-03-09T08:56:09.415Z,29.20
2019-03-09T08:58:38.992Z,28.87
2019-03-09T09:01:09.575Z,29.02
2019-03-09T09:03:39.037Z,28.69
2019-03-09T09:06:08.497Z,28.86
2019-03-09T09:08:38.792Z,28.41
2019-03-09T09:11:09.191Z,28.16
2019-03-09T09:13:39.539Z,27.83
2019-03-09T09:16:08.890Z,27.98
2019-03-09T09:18:38.278Z,28.08
2019-03-09T09:21:07.627Z,27.65
2019-03-09T09:23:37.022Z,27.63
2019-03-09T09:26:06.457Z,27.68
2019-03-09T09:28:36.003Z,27.43
2019-03-09T09:31:08.667Z,27.34
2019-03-09T09:33:38.547Z,28.16
2019-03-09T09:36:07.889Z,28.20
2019-03-09T09:38:37.235Z,28.27
2019-03-09T09:41:06.585Z,27.94
2019-03-09T09:43:35.933Z,27.26
2019-03-09T09:46:05.253Z,27.67
2019-03-09T09:48:34.590Z,27.72
2019-03-09T09:51:03.934Z,28.18
2019-03-09T09:53:33.319Z,27.74
2019-03-09T09:56:02.661Z,28.08
2019-03-09T09:58:32.039Z,28.05
2019-03-09T10:01:01.483Z,27.74
2019-03-09T10:03:30.887Z,27.04
2019-03-09T10:06:00.240Z,26.41
2019-03-09T10:08:29.577Z,25.89
2019-03-09T10:10:58.917Z,27.13
2019-03-09T10:13:28.318Z,27.36
2019-03-09T10:15:57.687Z,26.52
2019-03-09T10:18:27.079Z,27.09
2019-03-09T10:20:56.800Z,27.79
2019-03-09T10:23:26.169Z,27.63
2019-03-09T10:25:55.545Z,28.12
2019-03-09T10:28:25.037Z,28.90
2019-03-09T10:30:54.417Z,28.44
2019-03-09T10:33:24.330Z,28.38
2019-03-09T10:35:53.784Z,28.03
2019-03-09T10:38:23.131Z,27.48
2019-03-09T10:40:52.729Z,27.71
2019-03-09T10:43:22.159Z,27.61
2019-03-09T10:45:51.689Z,27.18
2019-03-09T10:48:21.232Z,26.82
2019-03-09T10:50:50.705Z,27.23
2019-03-09T10:53:20.503Z,27.02
2019-03-09T10:55:49.957Z,26.88
2019-03-09T10:58:19.591Z,26.21
2019-03-09T11:00:49.048Z,25.33
2019-03-09T11:03:18.466Z,25.84
2019-03-09T11:05:47.850Z,27.17
2019-03-09T11:08:17.185Z,28.45
2019-03-09T11:10:46.524Z,27.80
2019-03-09T11:13:15.920Z,27.90
2019-03-09T11:15:45.321Z,28.11
2019-03-09T11:18:15.964Z,28.01
2019-03-09T11:20:45.373Z,27.58
2019-03-09T11:23:16.100Z,26.82
2019-03-09T11:25:45.507Z,26.33
2019-03-09T11:28:15.059Z,25.95
2019-03-09T11:30:44.494Z,25.62
2019-03-09T11:33:13.912Z,27.10
2019-03-09T11:35:44.165Z,26.88
2019-03-09T11:38:14.589Z,26.78
2019-03-09T11:40:43.993Z,26.73
2019-03-09T11:43:13.399Z,26.48
2019-03-09T11:45:43.519Z,25.61
2019-03-09T11:48:12.988Z,26.57
2019-03-09T11:50:42.409Z,26.13
2019-03-09T11:53:11.819Z,26.71
2019-03-09T11:55:42.281Z,27.47
2019-03-09T11:58:11.834Z,28.03
2019-03-09T12:00:41.716Z,27.48
2019-03-09T12:03:11.139Z,26.56
2019-03-09T12:05:40.517Z,26.43
2019-03-09T12:08:10.254Z,27.03
2019-03-09T12:10:39.744Z,27.66
2019-03-09T12:13:09.212Z,28.16
2019-03-09T12:15:39.118Z,28.94
2019-03-09T12:18:08.768Z,27.56
2019-03-09T12:20:38.412Z,27.01
2019-03-09T12:23:26.712Z,28.07
2019-03-09T12:25:56.987Z,28.54
2019-03-09T12:28:26.332Z,28.83
2019-03-09T12:30:55.773Z,27.86
2019-03-09T12:33:25.181Z,27.37
2019-03-09T12:35:54.535Z,26.51
2019-03-09T12:38:23.925Z,26.85
2019-03-09T12:40:53.741Z,27.57
2019-03-09T12:43:23.059Z,28.10
2019-03-09T12:45:52.562Z,28.11
2019-03-09T12:48:22.047Z,28.60
2019-03-09T12:50:51.575Z,29.00
2019-03-09T12:53:20.983Z,29.38
2019-03-09T12:55:50.352Z,29.50
2019-03-09T12:58:19.753Z,29.36
2019-03-09T13:00:49.219Z,29.27
2019-03-09T13:03:18.653Z,29.25
2019-03-09T13:05:48.002Z,29.24
2019-03-09T13:08:17.415Z,29.45
2019-03-09T13:10:46.773Z,29.63
2019-03-09T13:13:16.267Z,29.67
2019-03-09T13:15:45.708Z,29.67
2019-03-09T13:18:15.268Z,29.62
2019-03-09T13:20:45.155Z,29.00
2019-03-09T13:23:14.626Z,28.83
2019-03-09T13:25:44.884Z,28.64
2019-03-09T13:28:14.256Z,27.52
2019-03-09T13:30:43.660Z,27.55
2019-03-09T13:33:13.024Z,28.21
2019-03-09T13:35:42.627Z,28.37
2019-03-09T13:38:12.129Z,28.43
2019-03-09T13:40:41.510Z,28.99
2019-03-09T13:43:10.881Z,28.56
2019-03-09T13:45:40.246Z,28.79
2019-03-09T13:48:09.621Z,29.14
2019-03-09T13:50:39.028Z,29.17
2019-03-09T13:53:08.391Z,29.34
2019-03-09T13:55:37.865Z,29.15
2019-03-09T13:58:07.454Z,28.72
2019-03-09T14:00:40.769Z,28.76
2019-03-09T14:03:08.075Z,28.49
2019-03-09T14:05:37.563Z,28.49
2019-03-09T14:08:06.989Z,28.50
2019-03-09T14:10:36.384Z,28.73
2019-03-09T14:13:05.796Z,28.73
2019-03-09T14:15:35.139Z,28.54
2019-03-09T14:18:04.583Z,28.49
2019-03-09T14:20:34.205Z,28.54
2019-03-09T14:23:03.756Z,28.79
2019-03-09T14:25:33.154Z,28.87
2019-03-09T14:28:02.572Z,28.62
2019-03-09T14:30:31.950Z,28.62
2019-03-09T14:33:01.401Z,28.62
2019-03-09T14:35:30.910Z,28.60
2019-03-09T14:38:00.500Z,28.63
2019-03-09T14:40:30.085Z,29.08
2019-03-09T14:42:59.465Z,29.63
2019-03-09T14:45:28.818Z,29.77
2019-03-09T14:47:58.194Z,29.05
2019-03-09T14:50:27.551Z,29.11
2019-03-09T14:52:56.940Z,28.85
2019-03-09T14:55:26.320Z,29.46
2019-03-09T14:57:55.751Z,29.29
2019-03-09T15:00:25.262Z,29.24
2019-03-09T15:02:54.753Z,29.08
2019-03-09T15:05:24.182Z,29.08
2019-03-09T15:07:53.589Z,28.63
2019-03-09T15:10:22.969Z,28.89
2019-03-09T15:12:52.467Z,28.97
2019-03-09T15:15:22.051Z,29.30
2019-03-09T15:17:51.475Z,29.23
2019-03-09T15:20:21.322Z,29.65
2019-03-09T15:22:50.726Z,29.90
2019-03-09T15:25:21.034Z,30.01
2019-03-09T15:27:50.875Z,30.14
2019-03-09T15:30:20.379Z,30.34
2019-03-09T15:32:49.764Z,30.92
2019-03-09T15:35:19.150Z,30.65
2019-03-09T15:37:48.616Z,30.49
2019-03-09T15:40:18.411Z,30.23
2019-03-09T15:42:48.688Z,29.99
2019-03-09T15:45:18.220Z,30.04
2019-03-09T15:47:47.661Z,29.38
2019-03-09T15:50:17.283Z,29.12
2019-03-09T15:52:46.707Z,28.96
2019-03-09T15:55:16.147Z,28.96
2019-03-09T15:57:45.666Z,28.91
2019-03-09T16:00:17.305Z,28.86
2019-03-09T16:02:46.811Z,28.96
2019-03-09T16:05:16.452Z,28.93
2019-03-09T16:07:45.850Z,29.01
2019-03-09T16:10:15.570Z,29.20
2019-03-09T16:12:45.080Z,29.05
2019-03-09T16:15:14.818Z,29.10
2019-03-09T16:17:44.212Z,28.94
2019-03-09T16:20:15.306Z,29.32
2019-03-09T16:22:44.786Z,29.17
2019-03-09T16:25:14.330Z,29.52
2019-03-09T16:27:43.757Z,29.47
2019-03-09T16:30:16.113Z,29.77
2019-03-09T16:32:45.507Z,30.22
2019-03-09T16:35:14.888Z,29.93
2019-03-09T16:37:44.381Z,30.35
2019-03-09T16:40:14.176Z,30.42
2019-03-09T16:42:43.547Z,30.74
2019-03-09T16:45:13.775Z,30.50
2019-03-09T16:47:43.147Z,30.23
2019-03-09T16:50:12.961Z,30.22
2019-03-09T16:52:42.394Z,30.58
2019-03-09T16:55:12.632Z,30.67
2019-03-09T16:57:42.402Z,30.77
2019-03-09T17:00:15.102Z,30.78
2019-03-09T17:02:44.555Z,30.93
2019-03-09T17:05:14.511Z,30.87
2019-03-09T17:07:43.960Z,31.24
2019-03-09T17:10:13.609Z,31.11
2019-03-09T17:12:43.005Z,31.35
2019-03-09T17:15:12.969Z,31.32
2019-03-09T17:17:42.344Z,31.78
2019-03-09T17:20:12.158Z,31.88
2019-03-09T17:22:41.791Z,32.06
2019-03-09T17:25:11.426Z,32.20
2019-03-09T17:27:46.148Z,32.42
2019-03-09T17:30:17.078Z,32.58
2019-03-09T17:32:54.737Z,32.71
2019-03-09T17:35:25.855Z,32.94
2019-03-09T17:37:55.217Z,33.00
2019-03-09T17:40:24.615Z,38.09
2019-03-09T17:42:54.069Z,40.04
2019-03-09T17:45:23.623Z,42.16
2019-03-09T17:47:53.189Z,43.25
2019-03-09T17:50:22.646Z,44.64
2019-03-09T17:52:52.089Z,46.31
2019-03-09T17:55:21.517Z,47.10
2019-03-09T17:57:50.934Z,47.83
2019-03-09T18:00:23.127Z,48.80
2019-03-09T18:02:52.573Z,48.66
2019-03-09T18:05:22.022Z,48.72
2019-03-09T18:07:51.416Z,48.63
2019-03-09T18:10:24.608Z,49.19
2019-03-09T18:12:54.127Z,49.49
2019-03-09T18:15:23.670Z,50.01
2019-03-09T18:17:53.103Z,50.70
2019-03-09T18:20:22.527Z,50.92
2019-03-09T18:22:51.917Z,51.59
2019-03-09T18:25:21.419Z,52.38
2019-03-09T18:27:51.704Z,52.64
2019-03-09T18:30:21.179Z,53.75
2019-03-09T18:32:50.593Z,54.50
2019-03-09T18:35:20.064Z,54.66
2019-03-09T18:37:49.495Z,54.89
2019-03-09T18:40:18.883Z,55.41
2019-03-09T18:42:48.293Z,55.42
2019-03-09T18:45:17.648Z,55.07
2019-03-09T18:47:47.038Z,55.00
2019-03-09T18:50:16.633Z,54.90
2019-03-09T18:52:46.048Z,55.02
2019-03-09T18:55:15.710Z,55.31
2019-03-09T18:57:45.160Z,55.26
2019-03-09T19:00:16.221Z,54.85
2019-03-09T19:02:46.684Z,54.85
2019-03-09T19:05:16.106Z,55.35
2019-03-09T19:07:46.634Z,54.95
2019-03-09T19:10:16.351Z,54.56
2019-03-09T19:12:45.910Z,54.69
2019-03-09T19:15:16.600Z,53.81
2019-03-09T19:17:46.328Z,53.64
2019-03-09T19:20:16.399Z,53.71
2019-03-09T19:22:45.880Z,53.49
2019-03-09T19:25:15.600Z,53.57
2019-03-09T19:27:45.245Z,54.16
2019-03-09T19:30:16.579Z,54.25
2019-03-09T19:32:46.028Z,54.58
2019-03-09T19:35:15.497Z,54.63
2019-03-09T19:37:45.065Z,54.53
2019-03-09T19:40:15.100Z,54.95
2019-03-09T19:42:47.471Z,55.16
2019-03-09T19:45:16.859Z,55.41
2019-03-09T19:47:46.874Z,55.61
2019-03-09T19:50:17.739Z,55.55
2019-03-09T19:52:47.128Z,55.82
2019-03-09T19:55:16.842Z,55.53
2019-03-09T19:57:47.124Z,54.85
2019-03-09T20:00:16.600Z,54.75
2019-03-09T20:02:46.187Z,54.91
2019-03-09T20:05:16.556Z,54.86
2019-03-09T20:07:46.009Z,55.07
2019-03-09T20:10:15.576Z,54.98
2019-03-09T20:12:45.079Z,54.98
2019-03-09T20:15:15.027Z,54.83
2019-03-09T20:17:45.899Z,55.04
2019-03-09T20:20:15.792Z,55.22
2019-03-09T20:22:45.249Z,55.52
2019-03-09T20:25:14.757Z,55.61
2019-03-09T20:27:44.604Z,55.68
2019-03-09T20:30:16.012Z,55.37
2019-03-09T20:32:45.508Z,55.32
2019-03-09T20:35:14.892Z,54.53
2019-03-09T20:37:44.312Z,55.38
2019-03-09T20:40:13.735Z,55.57
2019-03-09T20:42:44.035Z,55.29
2019-03-09T20:45:14.910Z,55.59
2019-03-09T20:47:44.581Z,55.41
2019-03-09T20:50:15.048Z,56.05
2019-03-09T20:52:44.911Z,56.21
2019-03-09T20:55:14.387Z,56.76
2019-03-09T20:57:44.225Z,56.76
2019-03-09T21:00:15.644Z,57.12
2019-03-09T21:02:45.440Z,57.29
2019-03-09T21:05:15.381Z,57.63
2019-03-09T21:07:44.824Z,58.10
2019-03-09T21:10:15.443Z,58.18
2019-03-09T21:13:15.995Z,58.16
2019-03-09T21:15:45.551Z,58.48
2019-03-09T21:18:14.986Z,59.29
2019-03-09T21:20:44.351Z,59.33
2019-03-09T21:23:13.742Z,59.72
2019-03-09T21:25:43.147Z,59.87
2019-03-09T21:28:12.532Z,59.97
2019-03-09T21:30:42.060Z,60.06
2019-03-09T21:33:11.451Z,60.27
2019-03-09T21:35:40.873Z,59.89
2019-03-09T21:38:10.248Z,60.25
2019-03-09T21:40:39.661Z,60.16
2019-03-09T21:43:09.070Z,60.60
2019-03-09T21:45:38.484Z,61.08
2019-03-09T21:48:07.883Z,60.74
2019-03-09T21:50:37.293Z,61.69
2019-03-09T21:53:06.706Z,61.98
2019-03-09T21:55:36.083Z,62.30
2019-03-09T21:58:05.581Z,61.65
2019-03-09T22:00:34.979Z,62.30
2019-03-09T22:03:04.413Z,62.21
2019-03-09T22:05:33.818Z,62.82
2019-03-09T22:08:03.233Z,63.19
2019-03-09T22:10:32.709Z,63.05
2019-03-09T22:13:02.150Z,62.87
2019-03-09T22:15:31.587Z,63.57
2019-03-09T22:18:01.003Z,62.87
2019-03-09T22:20:30.423Z,62.89
2019-03-09T22:22:59.792Z,63.53
2019-03-09T22:25:29.207Z,63.05
2019-03-09T22:27:58.742Z,62.85
2019-03-09T22:30:28.138Z,62.59
2019-03-09T22:32:57.651Z,63.26
2019-03-09T22:35:27.161Z,62.85
2019-03-09T22:37:56.568Z,62.59
2019-03-09T22:40:26.028Z,62.91
2019-03-09T22:42:56.348Z,62.63
2019-03-09T22:45:25.783Z,62.31
2019-03-09T22:47:55.177Z,61.41
2019-03-09T22:50:24.594Z,61.84
2019-03-09T22:52:53.965Z,61.80
2019-03-09T22:55:23.392Z,61.06
2019-03-09T22:57:52.850Z,61.34
2019-03-09T23:00:23.158Z,61.98
2019-03-09T23:02:52.529Z,63.22
2019-03-09T23:05:21.911Z,62.88
2019-03-09T23:07:51.281Z,63.24
2019-03-09T23:10:20.739Z,63.80
2019-03-09T23:12:50.124Z,64.81
2019-03-09T23:15:19.516Z,65.51
2019-03-09T23:17:49.106Z,65.73
2019-03-09T23:20:18.487Z,65.34
2019-03-09T23:22:47.881Z,65.16
2019-03-09T23:25:17.748Z,65.20
2019-03-09T23:27:47.151Z,65.89
2019-03-09T23:30:17.331Z,65.95
2019-03-09T23:32:46.741Z,66.28
2019-03-09T23:35:16.368Z,66.69
2019-03-09T23:37:46.092Z,66.95
2019-03-09T23:40:16.305Z,67.10
2019-03-09T23:42:45.809Z,67.47
2019-03-09T23:45:16.079Z,67.46
2019-03-09T23:47:45.796Z,67.70
2019-03-09T23:50:15.734Z,66.75
2019-03-09T23:52:45.703Z,66.35
2019-03-09T23:55:21.999Z,66.16
2019-03-09T23:57:47.342Z,66.77
